Time;durP1;ratioP1;P1;durP2;ratioP2;P2;SDS_P1;SDS_P2;PMS_P1;PMS_P2;Temp;Humidity;BMP_temperature;BMP_pressure;BME280_temperature;BME280_humidity;BME280_pressure;Samples;Min_cycle;Max_cycle;Signal;HPM_P1;HPM_P2
2022/08/28 00:02:10;;;;;;;;;;;13.80;99.90;;;;;;5070663;28;19916;-83
2022/08/28 00:04:36;;;;;;;;;;;13.70;99.90;;;;;;5047719;28;19920;-82
2022/08/28 00:07:01;;;;;;;;;;;13.80;99.90;;;;;;5052318;28;19917;-82
2022/08/28 00:09:27;;;;;;;;;;;13.70;99.90;;;;;;5052352;28;20390;-82
2022/08/28 00:11:53;;;;;;;;;;;13.70;99.90;;;;;;5053578;28;20007;-83
2022/08/28 00:14:19;;;;;;;;;;;13.60;99.90;;;;;;5069998;28;19970;-82
2022/08/28 00:16:48;;;;;;;;;;;13.60;99.90;;;;;;5069177;28;19916;-82
2022/08/28 00:19:15;;;;;;;;;;;13.60;99.90;;;;;;5070080;28;19934;-83
2022/08/28 00:21:40;;;;;;;;;;;13.60;99.90;;;;;;5069012;28;19916;-83
2022/08/28 00:24:06;;;;;;;;;;;13.50;99.90;;;;;;5070030;28;19993;-83
2022/08/28 00:29:16;;;;;;;;;;;13.50;99.90;;;;;;5069240;28;19916;-82
2022/08/28 00:31:41;;;;;;;;;;;13.50;99.90;;;;;;5069620;28;19924;-83
2022/08/28 00:34:07;;;;;;;;;;;13.40;99.90;;;;;;5069113;28;19927;-83
2022/08/28 00:36:33;;;;;;;;;;;13.40;99.90;;;;;;5070288;28;19921;-82
2022/08/28 00:38:59;;;;;;;;;;;13.40;99.90;;;;;;5052892;28;19917;-82
2022/08/28 00:41:30;;;;;;;;;;;13.40;99.90;;;;;;5052380;28;19920;-82
2022/08/28 00:44:24;;;;;;;;;;;13.40;99.90;;;;;;5069129;28;19916;-82
2022/08/28 00:46:51;;;;;;;;;;;13.30;99.90;;;;;;5008823;28;19924;-82
2022/08/28 00:49:18;;;;;;;;;;;13.30;99.90;;;;;;4991993;28;19917;-82
2022/08/28 00:54:29;;;;;;;;;;;13.20;99.90;;;;;;4972567;28;19921;-82
2022/08/28 00:56:55;;;;;;;;;;;13.20;99.90;;;;;;4981067;28;19917;-82
2022/08/28 00:59:22;;;;;;;;;;;13.20;99.90;;;;;;4992191;28;19924;-82
2022/08/28 01:01:48;;;;;;;;;;;13.20;99.90;;;;;;4991830;28;20058;-82
2022/08/28 01:04:15;;;;;;;;;;;13.20;99.90;;;;;;4991128;28;20432;-82
2022/08/28 01:06:42;;;;;;;;;;;13.10;99.90;;;;;;4976264;28;20260;-82
2022/08/28 01:09:10;;;;;;;;;;;13.10;99.90;;;;;;4984419;28;19940;-82
2022/08/28 01:11:36;;;;;;;;;;;13.10;99.90;;;;;;4957023;28;19928;-82
2022/08/28 01:14:04;;;;;;;;;;;13.00;99.90;;;;;;4973561;28;19921;-82
2022/08/28 01:16:30;;;;;;;;;;;13.10;99.90;;;;;;4978620;28;19918;-82
2022/08/28 01:18:56;;;;;;;;;;;13.00;99.90;;;;;;4956434;28;19969;-82
2022/08/28 01:21:48;;;;;;;;;;;13.00;99.90;;;;;;4980137;28;20007;-82
2022/08/28 01:24:15;;;;;;;;;;;13.00;99.90;;;;;;5026539;28;19971;-82
2022/08/28 01:26:40;;;;;;;;;;;12.90;99.90;;;;;;5038163;28;19916;-82
2022/08/28 01:29:07;;;;;;;;;;;12.90;99.90;;;;;;5034565;28;20011;-82
2022/08/28 01:31:33;;;;;;;;;;;12.90;99.90;;;;;;5048927;28;19921;-82
2022/08/28 01:33:59;;;;;;;;;;;12.90;99.90;;;;;;5057372;28;19927;-82
2022/08/28 01:36:25;;;;;;;;;;;12.90;99.90;;;;;;5049301;28;19939;-82
2022/08/28 01:38:54;;;;;;;;;;;12.80;99.90;;;;;;5057238;28;19916;-82
2022/08/28 01:41:20;;;;;;;;;;;12.90;99.90;;;;;;5032510;28;19970;-82
2022/08/28 01:43:46;;;;;;;;;;;12.80;99.90;;;;;;5056780;28;19917;-82
2022/08/28 01:46:11;;;;;;;;;;;12.80;99.90;;;;;;5068556;28;19923;-82
2022/08/28 01:48:39;;;;;;;;;;;12.80;99.90;;;;;;5069032;28;19964;-83
2022/08/28 01:51:04;;;;;;;;;;;12.70;99.90;;;;;;5041892;28;19917;-82
2022/08/28 01:53:30;;;;;;;;;;;12.70;99.90;;;;;;5048142;28;19927;-82
2022/08/28 01:55:56;;;;;;;;;;;12.60;99.90;;;;;;5056143;28;20374;-82
2022/08/28 01:58:22;;;;;;;;;;;12.60;99.90;;;;;;5033441;28;20054;-82
2022/08/28 02:00:48;;;;;;;;;;;12.50;99.90;;;;;;5032231;28;19961;-82
2022/08/28 02:03:14;;;;;;;;;;;12.50;99.90;;;;;;5049339;28;20369;-82
2022/08/28 02:05:40;;;;;;;;;;;12.50;99.90;;;;;;5052219;28;19960;-83
2022/08/28 02:08:06;;;;;;;;;;;12.40;99.90;;;;;;5051059;28;19920;-82
2022/08/28 02:10:32;;;;;;;;;;;12.50;99.90;;;;;;5068273;28;19924;-82
2022/08/28 02:12:58;;;;;;;;;;;12.50;99.90;;;;;;5068346;28;19958;-82
2022/08/28 02:15:25;;;;;;;;;;;12.50;99.90;;;;;;5068666;28;19967;-82
2022/08/28 02:17:51;;;;;;;;;;;12.50;99.90;;;;;;5067826;28;19994;-82
2022/08/28 02:20:17;;;;;;;;;;;12.50;99.90;;;;;;5052758;28;20364;-82
2022/08/28 02:22:43;;;;;;;;;;;12.50;99.90;;;;;;5050632;28;19920;-82
2022/08/28 02:25:08;;;;;;;;;;;12.50;99.90;;;;;;5048153;28;20546;-82
2022/08/28 02:27:35;;;;;;;;;;;12.50;99.90;;;;;;5050437;28;19939;-83
2022/08/28 02:30:01;;;;;;;;;;;12.50;99.90;;;;;;5054376;28;19962;-82
2022/08/28 02:32:26;;;;;;;;;;;12.50;99.90;;;;;;5048744;28;19917;-82
2022/08/28 02:34:53;;;;;;;;;;;12.50;99.90;;;;;;5056281;28;19927;-82
2022/08/28 02:37:19;;;;;;;;;;;12.50;99.90;;;;;;5049194;28;19920;-82
2022/08/28 02:39:45;;;;;;;;;;;12.50;99.90;;;;;;5049341;28;19924;-82
2022/08/28 02:42:10;;;;;;;;;;;12.50;99.90;;;;;;5051723;28;20305;-82
2022/08/28 02:44:36;;;;;;;;;;;12.50;99.90;;;;;;5052179;28;19964;-82
2022/08/28 02:47:02;;;;;;;;;;;12.50;99.90;;;;;;5055609;28;19916;-82
2022/08/28 02:49:28;;;;;;;;;;;12.50;99.90;;;;;;5056222;28;20607;-82
2022/08/28 02:51:56;;;;;;;;;;;12.40;99.90;;;;;;5051814;28;19980;-82
2022/08/28 02:54:22;;;;;;;;;;;12.50;99.90;;;;;;5063664;28;20374;-82
2022/08/28 02:56:48;;;;;;;;;;;12.40;99.90;;;;;;5072118;28;19916;-82
2022/08/28 02:59:13;;;;;;;;;;;12.40;99.90;;;;;;5071689;28;19926;-82
2022/08/28 03:01:39;;;;;;;;;;;12.40;99.90;;;;;;5054466;28;19916;-83
2022/08/28 03:04:04;;;;;;;;;;;12.40;99.90;;;;;;5071694;28;19923;-82
2022/08/28 03:06:31;;;;;;;;;;;12.40;99.90;;;;;;5071820;28;19928;-82
2022/08/28 03:08:56;;;;;;;;;;;12.40;99.90;;;;;;5070985;28;19923;-82
2022/08/28 03:11:22;;;;;;;;;;;12.40;99.90;;;;;;5054340;28;19916;-82
2022/08/28 03:13:48;;;;;;;;;;;12.40;99.90;;;;;;5054250;28;19966;-82
2022/08/28 03:16:13;;;;;;;;;;;12.40;99.90;;;;;;5070775;28;19922;-82
2022/08/28 03:18:39;;;;;;;;;;;12.40;99.90;;;;;;5043342;28;20000;-82
2022/08/28 03:21:04;;;;;;;;;;;12.40;99.90;;;;;;5051325;28;19923;-82
2022/08/28 03:23:30;;;;;;;;;;;12.30;99.90;;;;;;5058402;28;19923;-82
2022/08/28 03:25:58;;;;;;;;;;;12.30;99.90;;;;;;5052330;28;19966;-82
2022/08/28 03:28:24;;;;;;;;;;;12.30;99.90;;;;;;5052308;28;20409;-82
2022/08/28 03:30:50;;;;;;;;;;;12.30;99.90;;;;;;5057608;28;20466;-82
2022/08/28 03:33:15;;;;;;;;;;;12.30;99.90;;;;;;5051527;28;20385;-82
2022/08/28 03:35:41;;;;;;;;;;;12.30;99.90;;;;;;5055928;28;19916;-82
2022/08/28 03:38:06;;;;;;;;;;;12.30;99.90;;;;;;5054189;28;20377;-82
2022/08/28 03:40:32;;;;;;;;;;;12.30;99.90;;;;;;5071574;28;20296;-82
2022/08/28 03:42:57;;;;;;;;;;;12.30;99.90;;;;;;5070073;28;19916;-82
2022/08/28 03:45:23;;;;;;;;;;;12.30;99.90;;;;;;5053831;28;19916;-82
2022/08/28 03:47:49;;;;;;;;;;;12.30;99.90;;;;;;5070473;28;20371;-83
2022/08/28 03:50:16;;;;;;;;;;;12.30;99.90;;;;;;5051256;28;20381;-82
2022/08/28 03:52:41;;;;;;;;;;;12.40;99.90;;;;;;5049621;28;19923;-82
2022/08/28 03:55:08;;;;;;;;;;;12.30;99.90;;;;;;5042216;28;19971;-82
2022/08/28 03:57:34;;;;;;;;;;;12.40;99.90;;;;;;5051012;28;19971;-82
2022/08/28 04:00:00;;;;;;;;;;;12.40;99.90;;;;;;5051123;28;20324;-82
2022/08/28 04:02:26;;;;;;;;;;;12.30;99.90;;;;;;5052504;28;20313;-82
2022/08/28 04:04:51;;;;;;;;;;;12.30;99.90;;;;;;5071166;28;20385;-82
2022/08/28 04:07:17;;;;;;;;;;;12.30;99.90;;;;;;5053385;28;19966;-82
2022/08/28 04:09:43;;;;;;;;;;;12.30;99.90;;;;;;5070981;28;20281;-82
2022/08/28 04:12:09;;;;;;;;;;;12.30;99.90;;;;;;5069895;28;19916;-82
2022/08/28 04:14:34;;;;;;;;;;;12.30;99.90;;;;;;5046315;28;19920;-82
2022/08/28 04:17:00;;;;;;;;;;;12.30;99.90;;;;;;5053958;28;19917;-82
2022/08/28 04:19:25;;;;;;;;;;;12.30;99.90;;;;;;5067824;28;19920;-82
2022/08/28 04:21:51;;;;;;;;;;;12.30;99.90;;;;;;5049832;28;19916;-82
2022/08/28 04:24:16;;;;;;;;;;;12.30;99.90;;;;;;5056388;28;19923;-82
2022/08/28 04:26:42;;;;;;;;;;;12.30;99.90;;;;;;5070130;28;19966;-82
2022/08/28 04:29:07;;;;;;;;;;;12.30;99.90;;;;;;5069337;28;19943;-82
2022/08/28 04:31:34;;;;;;;;;;;12.20;99.90;;;;;;5057120;28;19928;-82
2022/08/28 04:34:01;;;;;;;;;;;12.20;99.90;;;;;;5050074;28;19935;-82
2022/08/28 04:36:27;;;;;;;;;;;12.20;99.90;;;;;;5063179;28;20439;-82
2022/08/28 04:38:53;;;;;;;;;;;12.20;99.90;;;;;;5070721;28;19924;-82
2022/08/28 04:41:19;;;;;;;;;;;12.10;99.90;;;;;;5069095;28;19970;-82
2022/08/28 04:43:44;;;;;;;;;;;12.20;99.90;;;;;;5040731;28;20347;-82
2022/08/28 04:46:11;;;;;;;;;;;12.20;99.90;;;;;;5050100;28;19917;-82
2022/08/28 04:48:37;;;;;;;;;;;12.20;99.90;;;;;;5057701;28;20403;-82
2022/08/28 04:51:04;;;;;;;;;;;12.20;99.90;;;;;;5048716;28;19920;-82
2022/08/28 04:53:30;;;;;;;;;;;12.20;99.90;;;;;;5054816;28;19927;-82
2022/08/28 04:55:57;;;;;;;;;;;12.20;99.90;;;;;;5052918;28;19916;-82
2022/08/28 04:58:24;;;;;;;;;;;12.10;99.90;;;;;;5069527;28;19916;-82
2022/08/28 05:00:50;;;;;;;;;;;12.10;99.90;;;;;;5063473;28;19924;-82
2022/08/28 05:03:16;;;;;;;;;;;12.10;99.90;;;;;;5049092;28;19956;-82
2022/08/28 05:05:43;;;;;;;;;;;12.10;99.90;;;;;;5049160;28;19917;-82
2022/08/28 05:08:09;;;;;;;;;;;12.10;99.90;;;;;;5056468;28;20290;-82
2022/08/28 05:10:34;;;;;;;;;;;12.00;99.90;;;;;;5048771;28;19924;-82
2022/08/28 05:13:00;;;;;;;;;;;12.00;99.90;;;;;;5032491;28;19942;-82
2022/08/28 05:15:26;;;;;;;;;;;12.00;99.90;;;;;;5039774;28;20027;-82
2022/08/28 05:17:52;;;;;;;;;;;12.00;99.90;;;;;;5049367;28;19932;-82
2022/08/28 05:20:17;;;;;;;;;;;12.00;99.90;;;;;;5054330;28;19939;-82
2022/08/28 05:22:43;;;;;;;;;;;11.90;99.90;;;;;;5048623;28;19920;-82
2022/08/28 05:25:08;;;;;;;;;;;12.00;99.90;;;;;;5049812;28;20378;-82
2022/08/28 05:27:34;;;;;;;;;;;11.90;99.90;;;;;;5069182;28;19942;-82
2022/08/28 05:29:59;;;;;;;;;;;12.00;99.90;;;;;;5069056;28;20348;-82
2022/08/28 05:32:25;;;;;;;;;;;12.00;99.90;;;;;;5051955;28;20020;-82
2022/08/28 05:34:51;;;;;;;;;;;12.00;99.90;;;;;;5068084;28;19943;-82
2022/08/28 05:37:17;;;;;;;;;;;12.00;99.90;;;;;;5052489;28;19917;-82
2022/08/28 05:39:43;;;;;;;;;;;12.00;99.90;;;;;;5068268;28;20393;-82
2022/08/28 05:42:08;;;;;;;;;;;12.10;99.90;;;;;;5069306;28;20011;-82
2022/08/28 05:44:34;;;;;;;;;;;12.10;99.90;;;;;;5051688;28;20270;-82
2022/08/28 05:46:59;;;;;;;;;;;12.20;99.90;;;;;;5068583;28;20006;-82
2022/08/28 05:49:27;;;;;;;;;;;12.20;99.90;;;;;;5069210;28;19923;-82
2022/08/28 05:51:52;;;;;;;;;;;12.20;99.90;;;;;;5051231;28;20939;-82
2022/08/28 05:54:18;;;;;;;;;;;12.30;99.90;;;;;;5068390;28;20507;-82
2022/08/28 05:56:44;;;;;;;;;;;12.40;99.90;;;;;;5052519;28;19924;-82
2022/08/28 05:59:10;;;;;;;;;;;12.40;99.90;;;;;;5051208;28;19917;-82
2022/08/28 06:01:43;;;;;;;;;;;12.40;99.90;;;;;;5068925;28;19916;-83
2022/08/28 06:04:10;;;;;;;;;;;12.50;99.90;;;;;;5069954;28;20373;-82
2022/08/28 06:06:38;;;;;;;;;;;12.60;99.90;;;;;;5040261;28;19916;-82
2022/08/28 06:09:05;;;;;;;;;;;12.70;99.90;;;;;;5049040;28;19924;-82
2022/08/28 06:11:31;;;;;;;;;;;12.70;99.90;;;;;;5052798;28;19917;-82
2022/08/28 06:13:59;;;;;;;;;;;12.80;99.90;;;;;;5068447;28;20297;-82
2022/08/28 06:16:25;;;;;;;;;;;12.80;99.90;;;;;;5072872;28;20534;-83
2022/08/28 06:18:50;;;;;;;;;;;12.90;99.90;;;;;;5072193;28;20369;-83
2022/08/28 06:21:16;;;;;;;;;;;13.00;99.90;;;;;;5072009;28;20003;-83
2022/08/28 06:23:42;;;;;;;;;;;13.00;99.90;;;;;;5070350;28;19916;-83
2022/08/28 06:26:07;;;;;;;;;;;13.10;99.90;;;;;;5043210;28;19921;-83
2022/08/28 06:28:33;;;;;;;;;;;13.20;99.90;;;;;;5044436;28;19939;-83
2022/08/28 06:31:00;;;;;;;;;;;13.20;99.90;;;;;;5072750;28;20003;-83
2022/08/28 06:33:26;;;;;;;;;;;13.30;99.90;;;;;;5072145;28;20019;-82
2022/08/28 06:35:52;;;;;;;;;;;13.40;99.90;;;;;;5071783;28;20011;-83
2022/08/28 06:38:19;;;;;;;;;;;13.40;99.90;;;;;;5071520;28;19916;-82
2022/08/28 06:40:46;;;;;;;;;;;13.50;99.90;;;;;;5072575;28;19959;-82
2022/08/28 06:43:12;;;;;;;;;;;13.60;99.90;;;;;;5071824;28;19966;-83
2022/08/28 06:45:41;;;;;;;;;;;13.70;99.90;;;;;;5071031;28;20275;-83
2022/08/28 06:48:07;;;;;;;;;;;13.80;99.90;;;;;;5072690;28;20301;-83
2022/08/28 06:50:33;;;;;;;;;;;13.80;99.90;;;;;;5070952;28;19923;-83
2022/08/28 06:53:00;;;;;;;;;;;13.90;99.90;;;;;;5071367;28;19916;-83
2022/08/28 06:55:25;;;;;;;;;;;14.00;99.90;;;;;;5071922;28;19916;-83
2022/08/28 06:57:51;;;;;;;;;;;14.10;99.90;;;;;;5071313;28;19940;-83
2022/08/28 07:00:17;;;;;;;;;;;14.20;99.90;;;;;;5055954;28;20289;-83
2022/08/28 07:02:42;;;;;;;;;;;14.30;99.90;;;;;;5055390;28;19971;-83
2022/08/28 07:05:08;;;;;;;;;;;14.40;99.90;;;;;;5070554;28;20329;-83
2022/08/28 07:07:33;;;;;;;;;;;14.50;99.90;;;;;;5071849;28;19916;-83
2022/08/28 07:09:59;;;;;;;;;;;14.50;99.90;;;;;;5070776;28;19927;-83
2022/08/28 07:12:24;;;;;;;;;;;14.60;99.90;;;;;;5070894;28;19969;-83
2022/08/28 07:14:50;;;;;;;;;;;14.70;99.90;;;;;;5071405;28;19920;-83
2022/08/28 07:17:16;;;;;;;;;;;14.80;99.90;;;;;;5054677;28;20003;-84
2022/08/28 07:19:41;;;;;;;;;;;14.80;99.90;;;;;;5054274;28;19924;-83
2022/08/28 07:22:07;;;;;;;;;;;14.90;99.90;;;;;;5071089;28;20262;-84
2022/08/28 07:24:32;;;;;;;;;;;15.00;99.90;;;;;;5071023;28;19916;-83
2022/08/28 07:26:58;;;;;;;;;;;15.20;99.90;;;;;;5069787;28;19916;-84
2022/08/28 07:29:23;;;;;;;;;;;15.30;99.90;;;;;;5072899;28;19935;-84
2022/08/28 07:31:51;;;;;;;;;;;15.40;99.90;;;;;;5070511;28;19923;-84
2022/08/28 07:34:18;;;;;;;;;;;15.40;99.90;;;;;;5038250;28;19927;-84
2022/08/28 07:36:43;;;;;;;;;;;15.50;99.90;;;;;;5051021;28;19970;-84
2022/08/28 07:39:10;;;;;;;;;;;15.60;99.90;;;;;;5062060;28;19952;-84
2022/08/28 07:41:37;;;;;;;;;;;15.70;99.90;;;;;;5056068;28;19966;-84
2022/08/28 07:46:51;;;;;;;;;;;15.90;99.90;;;;;;5068625;28;19916;-84
2022/08/28 07:49:17;;;;;;;;;;;16.00;99.90;;;;;;5070817;28;20404;-84
2022/08/28 07:51:43;;;;;;;;;;;16.10;99.90;;;;;;5070094;28;19920;-84
2022/08/28 07:54:08;;;;;;;;;;;16.20;99.90;;;;;;5070680;28;19970;-84
2022/08/28 07:56:39;;;;;;;;;;;16.30;99.90;;;;;;5070737;28;19920;-84
2022/08/28 07:59:05;;;;;;;;;;;16.40;99.90;;;;;;5070551;28;19916;-84
2022/08/28 08:01:34;;;;;;;;;;;16.50;99.90;;;;;;5070833;28;19920;-84
2022/08/28 08:04:00;;;;;;;;;;;16.60;99.90;;;;;;5070192;28;19916;-84
2022/08/28 08:06:32;;;;;;;;;;;16.70;99.90;;;;;;5070314;28;20453;-84
2022/08/28 08:08:58;;;;;;;;;;;16.80;99.90;;;;;;5054154;28;19927;-84
2022/08/28 08:11:23;;;;;;;;;;;16.90;99.90;;;;;;5052285;28;19927;-84
2022/08/28 08:13:49;;;;;;;;;;;17.00;99.90;;;;;;5070595;28;19921;-84
2022/08/28 08:16:18;;;;;;;;;;;17.00;99.90;;;;;;5048617;28;19916;-84
2022/08/28 08:18:44;;;;;;;;;;;17.10;99.90;;;;;;5050497;28;19921;-84
2022/08/28 08:21:12;;;;;;;;;;;17.20;99.90;;;;;;5057191;28;20121;-84
2022/08/28 08:23:38;;;;;;;;;;;17.30;99.90;;;;;;5053220;28;20400;-83
2022/08/28 08:26:06;;;;;;;;;;;17.50;99.90;;;;;;5052620;28;19920;-84
2022/08/28 08:28:33;;;;;;;;;;;17.60;99.90;;;;;;5069966;28;19923;-84
2022/08/28 08:31:19;;;;;;;;;;;17.70;99.90;;;;;;5053297;28;20374;-84
2022/08/28 08:33:45;;;;;;;;;;;17.80;99.90;;;;;;5069220;28;19931;-84
2022/08/28 08:36:12;;;;;;;;;;;17.80;99.90;;;;;;5070027;28;19917;-84
2022/08/28 08:38:38;;;;;;;;;;;17.80;99.90;;;;;;5052358;28;19923;-84
2022/08/28 08:41:05;;;;;;;;;;;17.80;99.90;;;;;;5052486;28;19920;-84
2022/08/28 08:43:33;;;;;;;;;;;17.80;99.90;;;;;;5053537;28;20035;-84
2022/08/28 08:45:59;;;;;;;;;;;17.80;99.90;;;;;;5052478;28;19916;-84
2022/08/28 08:48:24;;;;;;;;;;;17.80;99.90;;;;;;5069872;28;19966;-84
2022/08/28 08:50:50;;;;;;;;;;;17.90;99.90;;;;;;5069683;28;20330;-84
2022/08/28 08:53:21;;;;;;;;;;;17.90;99.90;;;;;;5068438;28;19916;-84
2022/08/28 08:55:49;;;;;;;;;;;18.00;99.90;;;;;;5069503;28;19924;-84
2022/08/28 08:58:35;;;;;;;;;;;18.20;99.90;;;;;;5069403;28;19920;-84
2022/08/28 09:01:13;;;;;;;;;;;18.30;99.90;;;;;;5070040;28;19931;-84
2022/08/28 09:03:54;;;;;;;;;;;18.40;99.90;;;;;;5068994;28;20288;-83
2022/08/28 09:06:38;;;;;;;;;;;18.50;99.90;;;;;;5066209;28;19928;-84
2022/08/28 09:09:06;;;;;;;;;;;18.70;99.90;;;;;;5044148;28;20378;-84
2022/08/28 09:11:34;;;;;;;;;;;18.80;99.90;;;;;;5063235;28;19960;-84
2022/08/28 09:14:19;;;;;;;;;;;18.90;99.90;;;;;;5069588;28;19927;-84
2022/08/28 09:16:46;;;;;;;;;;;19.00;99.90;;;;;;5069212;28;19920;-84
2022/08/28 09:19:14;;;;;;;;;;;19.20;99.90;;;;;;5069056;28;19924;-84
2022/08/28 09:21:41;;;;;;;;;;;19.30;99.90;;;;;;5069439;28;20401;-84
2022/08/28 09:24:11;;;;;;;;;;;19.40;99.90;;;;;;5041321;28;19921;-84
2022/08/28 09:26:37;;;;;;;;;;;19.60;99.90;;;;;;5049496;28;20298;-84
2022/08/28 09:29:05;;;;;;;;;;;19.60;99.90;;;;;;5060264;28;19939;-84
2022/08/28 09:31:33;;;;;;;;;;;19.60;99.90;;;;;;5032544;28;20675;-84
2022/08/28 09:34:17;;;;;;;;;;;19.60;99.90;;;;;;5076263;28;19927;-84
2022/08/28 09:36:43;;;;;;;;;;;19.50;99.90;;;;;;5069310;28;20008;-84
2022/08/28 09:39:08;;;;;;;;;;;19.50;99.90;;;;;;5069187;28;20003;-84
2022/08/28 09:44:55;;;;;;;;;;;19.70;99.90;;;;;;5048966;28;20393;-84
2022/08/28 09:47:34;;;;;;;;;;;19.90;99.90;;;;;;5052065;28;19920;-84
2022/08/28 09:50:18;;;;;;;;;;;19.90;99.90;;;;;;5070293;28;19920;-84
2022/08/28 09:52:43;;;;;;;;;;;20.00;99.90;;;;;;5055387;28;19940;-84
2022/08/28 09:55:11;;;;;;;;;;;20.00;99.90;;;;;;5073023;28;19967;-84
2022/08/28 09:57:38;;;;;;;;;;;20.10;99.90;;;;;;5072409;28;19920;-84
2022/08/28 10:00:04;;;;;;;;;;;20.10;99.90;;;;;;5073177;28;19920;-84
2022/08/28 10:02:37;;;;;;;;;;;20.20;99.90;;;;;;5072610;28;20293;-84
2022/08/28 10:05:07;;;;;;;;;;;20.40;99.90;;;;;;5073635;28;19923;-84
2022/08/28 10:07:39;;;;;;;;;;;20.40;99.90;;;;;;5073136;28;19923;-84
2022/08/28 10:10:27;;;;;;;;;;;20.60;99.90;;;;;;5061048;28;19978;-84
2022/08/28 10:13:11;;;;;;;;;;;20.60;99.90;;;;;;5051677;28;19917;-84
2022/08/28 10:15:36;;;;;;;;;;;20.60;99.10;;;;;;5060569;28;19928;-84
2022/08/28 10:18:11;;;;;;;;;;;20.60;97.00;;;;;;5053548;28;20476;-83
2022/08/28 10:20:46;;;;;;;;;;;20.50;97.40;;;;;;5052746;28;19936;-84
2022/08/28 10:23:30;;;;;;;;;;;20.50;97.50;;;;;;5059223;28;19970;-84
2022/08/28 10:26:14;;;;;;;;;;;20.50;97.70;;;;;;5036001;28;20325;-84
2022/08/28 10:28:59;;;;;;;;;;;20.60;98.80;;;;;;5072134;28;20030;-84
2022/08/28 10:31:32;;;;;;;;;;;20.70;97.10;;;;;;5071414;28;19927;-84
2022/08/28 10:34:06;;;;;;;;;;;20.70;97.00;;;;;;5071403;28;19920;-84
2022/08/28 10:36:34;;;;;;;;;;;20.90;97.20;;;;;;5072680;28;19917;-84
2022/08/28 10:39:18;;;;;;;;;;;21.00;97.10;;;;;;5054672;28;19921;-84
2022/08/28 10:41:49;;;;;;;;;;;21.20;96.80;;;;;;5071891;28;19936;-84
2022/08/28 10:44:44;;;;;;;;;;;21.30;94.80;;;;;;5055291;28;19916;-84
2022/08/28 10:47:12;;;;;;;;;;;21.30;95.60;;;;;;4998414;28;19917;-84
2022/08/28 10:49:40;;;;;;;;;;;21.20;92.90;;;;;;5052607;28;19998;-84
2022/08/28 10:52:10;;;;;;;;;;;21.20;92.30;;;;;;5059860;28;19967;-84
2022/08/28 10:54:35;;;;;;;;;;;21.20;93.20;;;;;;5051569;28;19921;-84
2022/08/28 10:57:06;;;;;;;;;;;21.40;95.40;;;;;;5054312;28;20069;-84
2022/08/28 10:59:33;;;;;;;;;;;21.50;95.10;;;;;;5057487;28;20007;-84
2022/08/28 11:01:59;;;;;;;;;;;21.70;95.00;;;;;;5050705;28;19927;-84
2022/08/28 11:04:27;;;;;;;;;;;21.80;93.40;;;;;;5057145;28;20327;-84
2022/08/28 11:06:59;;;;;;;;;;;22.00;93.80;;;;;;5072462;28;19917;-84
2022/08/28 11:09:32;;;;;;;;;;;22.00;91.10;;;;;;5072222;28;19920;-84
2022/08/28 11:12:01;;;;;;;;;;;22.00;88.80;;;;;;5066728;28;19923;-84
2022/08/28 11:14:26;;;;;;;;;;;22.10;90.90;;;;;;5051062;28;19929;-84
2022/08/28 11:16:53;;;;;;;;;;;22.20;89.10;;;;;;5050478;28;19931;-85
2022/08/28 11:19:24;;;;;;;;;;;22.20;82.80;;;;;;5042194;28;20386;-84
2022/08/28 11:21:53;;;;;;;;;;;22.30;82.50;;;;;;5051132;28;20372;-84
2022/08/28 11:24:37;;;;;;;;;;;22.40;84.30;;;;;;5055345;28;19920;-84
2022/08/28 11:27:21;;;;;;;;;;;22.60;84.70;;;;;;5064604;28;19916;-84
2022/08/28 11:29:55;;;;;;;;;;;22.80;82.00;;;;;;5046768;28;19920;-84
2022/08/28 11:32:30;;;;;;;;;;;23.00;80.20;;;;;;5053029;28;19964;-85
2022/08/28 11:34:58;;;;;;;;;;;23.10;80.20;;;;;;5059683;28;19928;-85
2022/08/28 11:37:37;;;;;;;;;;;23.20;78.30;;;;;;5051009;28;19935;-84
2022/08/28 11:40:18;;;;;;;;;;;23.20;72.60;;;;;;5051224;28;19917;-84
2022/08/28 11:42:47;;;;;;;;;;;23.10;73.10;;;;;;5062336;28;19920;-85
2022/08/28 11:45:31;;;;;;;;;;;23.20;75.60;;;;;;5071112;28;19922;-84
2022/08/28 11:47:57;;;;;;;;;;;23.30;76.90;;;;;;5070311;28;20007;-85
2022/08/28 11:50:24;;;;;;;;;;;23.40;76.10;;;;;;5070819;28;20069;-84
2022/08/28 11:52:59;;;;;;;;;;;23.40;74.00;;;;;;5066995;28;19921;-85
2022/08/28 11:55:43;;;;;;;;;;;23.30;72.60;;;;;;5060590;28;19921;-84
2022/08/28 11:58:24;;;;;;;;;;;23.30;71.60;;;;;;5059076;28;19955;-84
2022/08/28 12:00:54;;;;;;;;;;;23.20;73.70;;;;;;5069472;28;20280;-84
2022/08/28 12:03:25;;;;;;;;;;;23.10;73.50;;;;;;5071363;28;19916;-84
2022/08/28 12:05:54;;;;;;;;;;;23.00;71.20;;;;;;5070567;28;19959;-84
2022/08/28 12:08:39;;;;;;;;;;;23.00;69.10;;;;;;5060805;28;19923;-85
2022/08/28 12:11:04;;;;;;;;;;;23.20;73.50;;;;;;5050545;28;19928;-85
2022/08/28 12:13:49;;;;;;;;;;;23.40;71.40;;;;;;5052519;28;19961;-84
2022/08/28 12:16:15;;;;;;;;;;;23.70;72.70;;;;;;5068709;28;19963;-85
2022/08/28 12:18:41;;;;;;;;;;;24.00;70.70;;;;;;5070015;28;19920;-85
2022/08/28 12:21:20;;;;;;;;;;;24.20;67.40;;;;;;5062138;28;19916;-85
2022/08/28 12:23:57;;;;;;;;;;;24.20;66.30;;;;;;5065206;28;19924;-85
2022/08/28 12:26:31;;;;;;;;;;;24.10;65.60;;;;;;5053344;28;19966;-84
2022/08/28 12:29:01;;;;;;;;;;;24.00;65.20;;;;;;5066036;28;19924;-85
2022/08/28 12:34:30;;;;;;;;;;;23.90;61.90;;;;;;5063737;28;19924;-85
2022/08/28 12:36:57;;;;;;;;;;;24.00;67.00;;;;;;5069864;28;19916;-85
2022/08/28 12:39:23;;;;;;;;;;;24.10;65.40;;;;;;5037984;28;19942;-85
2022/08/28 12:41:48;;;;;;;;;;;24.10;62.50;;;;;;5049852;28;19920;-85
2022/08/28 12:44:14;;;;;;;;;;;24.00;62.10;;;;;;5061965;28;20297;-85
2022/08/28 12:46:41;;;;;;;;;;;24.10;62.20;;;;;;5069277;28;20302;-85
2022/08/28 12:49:26;;;;;;;;;;;24.30;63.70;;;;;;5070102;28;19916;-85
2022/08/28 12:52:04;;;;;;;;;;;24.50;65.00;;;;;;5069242;28;19920;-84
2022/08/28 12:54:30;;;;;;;;;;;24.80;63.10;;;;;;5051838;28;20582;-85
2022/08/28 12:56:55;;;;;;;;;;;25.10;62.40;;;;;;5056535;28;19960;-85
2022/08/28 12:59:35;;;;;;;;;;;25.00;61.20;;;;;;5058385;28;20465;-85
2022/08/28 13:02:20;;;;;;;;;;;24.90;57.30;;;;;;5058878;28;19920;-85
2022/08/28 13:08:09;;;;;;;;;;;25.00;59.50;;;;;;5067166;28;19915;-85
2022/08/28 13:10:34;;;;;;;;;;;25.50;57.20;;;;;;5069031;28;19920;-85
2022/08/28 13:13:01;;;;;;;;;;;25.60;56.40;;;;;;5068821;28;20014;-84
2022/08/28 13:15:46;;;;;;;;;;;25.60;53.80;;;;;;5069042;28;20019;-85
2022/08/28 13:18:33;;;;;;;;;;;25.80;54.40;;;;;;5067954;28;19999;-85
2022/08/28 13:21:28;;;;;;;;;;;26.30;53.00;;;;;;5067995;28;19923;-85
2022/08/28 13:23:56;;;;;;;;;;;26.50;54.70;;;;;;5034063;28;19916;-85
2022/08/28 13:26:25;;;;;;;;;;;26.30;53.50;;;;;;5067740;28;19920;-85
2022/08/28 13:28:50;;;;;;;;;;;26.10;52.40;;;;;;5068373;28;19939;-85
2022/08/28 13:31:22;;;;;;;;;;;26.10;53.60;;;;;;5067251;28;20373;-85
2022/08/28 13:34:08;;;;;;;;;;;26.20;53.70;;;;;;5068703;28;20397;-85
2022/08/28 13:36:54;;;;;;;;;;;26.20;54.40;;;;;;5067648;28;19920;-85
2022/08/28 13:39:21;;;;;;;;;;;26.50;50.90;;;;;;5050075;28;20011;-85
2022/08/28 13:41:52;;;;;;;;;;;26.90;51.80;;;;;;5051742;28;19928;-85
2022/08/28 13:44:44;;;;;;;;;;;27.10;50.10;;;;;;5060136;28;19916;-85
2022/08/28 13:47:09;;;;;;;;;;;27.30;49.10;;;;;;5063597;28;19924;-85
2022/08/28 13:49:35;;;;;;;;;;;27.60;48.10;;;;;;5067842;28;19916;-85
2022/08/28 13:52:03;;;;;;;;;;;27.50;46.30;;;;;;5068378;28;19923;-85
2022/08/28 13:54:29;;;;;;;;;;;27.30;47.50;;;;;;5057391;28;19921;-85
2022/08/28 13:56:54;;;;;;;;;;;27.10;49.60;;;;;;5048621;28;19920;-85
2022/08/28 13:59:21;;;;;;;;;;;26.80;49.40;;;;;;5051189;28;19924;-86
2022/08/28 14:04:31;;;;;;;;;;;26.60;49.50;;;;;;5070310;28;19916;-85
2022/08/28 14:06:57;;;;;;;;;;;26.60;49.60;;;;;;5067663;28;20425;-85
2022/08/28 14:09:22;;;;;;;;;;;26.40;49.10;;;;;;5052113;28;19916;-85
2022/08/28 14:11:48;;;;;;;;;;;26.30;50.50;;;;;;5068327;28;19943;-85
2022/08/28 14:14:14;;;;;;;;;;;26.40;50.60;;;;;;5068378;28;20066;-85
2022/08/28 14:16:40;;;;;;;;;;;26.60;50.40;;;;;;5069082;28;19963;-86
2022/08/28 14:19:06;;;;;;;;;;;26.50;49.40;;;;;;5064249;28;19917;-85
2022/08/28 14:21:32;;;;;;;;;;;26.60;50.30;;;;;;5064890;28;20293;-86
2022/08/28 14:23:58;;;;;;;;;;;26.60;49.70;;;;;;5048904;28;19917;-85
2022/08/28 14:26:24;;;;;;;;;;;26.50;50.10;;;;;;5063065;28;19922;-85
2022/08/28 14:28:49;;;;;;;;;;;26.40;50.20;;;;;;5043331;28;19916;-86
2022/08/28 14:31:15;;;;;;;;;;;26.30;51.20;;;;;;5068664;28;20300;-85
2022/08/28 14:33:42;;;;;;;;;;;26.30;51.20;;;;;;5067590;28;19973;-86
2022/08/28 14:36:13;;;;;;;;;;;26.40;51.10;;;;;;5049983;28;19917;-85
2022/08/28 14:38:39;;;;;;;;;;;26.60;52.10;;;;;;5058523;28;19917;-85
2022/08/28 14:41:06;;;;;;;;;;;26.70;51.60;;;;;;5052423;28;19927;-85
2022/08/28 14:43:31;;;;;;;;;;;26.80;52.90;;;;;;5072462;28;20006;-85
2022/08/28 14:45:57;;;;;;;;;;;27.00;51.20;;;;;;5072885;28;19999;-85